createdAt,value
2018-08-12T00:01:22.991Z,57.83
2018-08-12T00:03:52.027Z,57.68
2018-08-12T00:06:21.014Z,58.02
2018-08-12T00:08:49.975Z,58.67
2018-08-12T00:11:18.931Z,58.59
2018-08-12T00:13:48.122Z,59.13
2018-08-12T00:16:17.230Z,59.59
2018-08-12T00:18:46.324Z,59.89
2018-08-12T00:21:15.340Z,60.15
2018-08-12T00:23:44.447Z,60.08
2018-08-12T00:26:13.539Z,60.00
2018-08-12T00:28:42.535Z,60.08
2018-08-12T00:31:11.527Z,59.96
2018-08-12T00:33:40.439Z,59.94
2018-08-12T00:36:09.427Z,60.07
2018-08-12T00:38:45.013Z,59.67
2018-08-12T00:41:14.214Z,58.74
2018-08-12T00:43:43.356Z,59.38
2018-08-12T00:46:12.473Z,59.19
2018-08-12T00:48:41.587Z,59.57
2018-08-12T00:51:10.747Z,59.16
2018-08-12T00:53:39.882Z,59.16
2018-08-12T00:56:08.966Z,59.29
2018-08-12T00:58:38.082Z,59.16
2018-08-12T01:01:07.323Z,59.00
2018-08-12T01:03:36.612Z,59.31
2018-08-12T01:06:05.862Z,59.19
2018-08-12T01:08:34.969Z,59.07
2018-08-12T01:11:04.079Z,59.25
2018-08-12T01:13:33.168Z,59.29
2018-08-12T01:16:02.275Z,59.76
2018-08-12T01:18:31.503Z,59.83
2018-08-12T01:21:00.624Z,60.16
2018-08-12T01:23:29.764Z,60.81
2018-08-12T01:26:06.419Z,60.37
2018-08-12T01:28:35.709Z,62.23
2018-08-12T01:31:04.799Z,61.08
2018-08-12T01:33:33.921Z,61.75
2018-08-12T01:36:03.030Z,64.00
2018-08-12T01:38:32.165Z,61.79
2018-08-12T01:41:01.161Z,60.97
2018-08-12T01:43:30.284Z,61.10
2018-08-12T01:45:59.253Z,60.75
2018-08-12T01:48:28.327Z,60.20
2018-08-12T01:50:57.362Z,60.45
2018-08-12T01:53:26.558Z,61.26
2018-08-12T01:55:55.592Z,62.49
2018-08-12T01:58:24.679Z,63.13
2018-08-12T02:00:54.235Z,61.63
2018-08-12T02:03:23.403Z,60.65
2018-08-12T02:05:52.646Z,60.73
2018-08-12T02:08:21.599Z,60.97
2018-08-12T02:10:50.653Z,60.88
2018-08-12T02:13:19.740Z,60.78
2018-08-12T02:15:48.924Z,60.17
2018-08-12T02:18:17.987Z,60.40
2018-08-12T02:20:46.983Z,60.05
2018-08-12T02:23:16.217Z,60.31
2018-08-12T02:25:45.325Z,60.24
2018-08-12T02:28:14.444Z,60.86
2018-08-12T02:30:43.600Z,60.56
2018-08-12T02:33:12.670Z,60.31
2018-08-12T02:35:41.725Z,60.04
2018-08-12T02:38:10.695Z,60.35
2018-08-12T02:40:39.812Z,60.13
2018-08-12T02:43:08.856Z,60.15
2018-08-12T02:45:37.924Z,60.34
2018-08-12T02:48:06.974Z,60.10
2018-08-12T02:50:36.188Z,60.11
2018-08-12T02:53:05.521Z,61.37
2018-08-12T02:55:34.633Z,60.83
2018-08-12T02:58:03.828Z,60.15
2018-08-12T03:00:33.016Z,60.38
2018-08-12T03:03:02.068Z,60.11
2018-08-12T03:05:31.129Z,60.84
2018-08-12T03:08:00.135Z,60.49
2018-08-12T03:10:29.252Z,60.16
2018-08-12T03:12:58.223Z,60.07
2018-08-12T03:15:27.316Z,60.24
2018-08-12T03:17:56.333Z,60.59
2018-08-12T03:20:25.500Z,61.11
2018-08-12T03:22:54.565Z,60.56
2018-08-12T03:25:23.751Z,60.89
2018-08-12T03:27:52.787Z,61.30
2018-08-12T03:30:22.068Z,61.01
2018-08-12T03:32:51.312Z,60.98
2018-08-12T03:35:20.476Z,60.95
2018-08-12T03:37:49.568Z,60.53
2018-08-12T03:40:18.737Z,60.96
2018-08-12T03:42:47.717Z,60.91
2018-08-12T03:45:16.800Z,61.33
2018-08-12T03:47:45.887Z,61.42
2018-08-12T03:50:14.937Z,61.27
2018-08-12T03:52:44.084Z,61.22
2018-08-12T03:55:13.199Z,61.62
2018-08-12T03:57:42.220Z,61.56
2018-08-12T04:00:15.335Z,63.80
2018-08-12T04:02:45.113Z,63.64
2018-08-12T04:05:14.338Z,61.88
2018-08-12T04:07:44.263Z,61.93
2018-08-12T04:10:13.433Z,61.45
2018-08-12T04:12:42.555Z,61.04
2018-08-12T04:15:12.559Z,60.92
2018-08-12T04:17:42.028Z,61.23
2018-08-12T04:20:12.040Z,61.49
2018-08-12T04:22:41.286Z,61.57
2018-08-12T04:25:10.478Z,61.10
2018-08-12T04:27:39.545Z,61.11
2018-08-12T04:30:09.959Z,61.04
2018-08-12T04:32:38.981Z,60.66
2018-08-12T04:35:08.527Z,60.63
2018-08-12T04:37:37.563Z,60.76
2018-08-12T04:40:07.694Z,60.92
2018-08-12T04:42:36.796Z,60.57
2018-08-12T04:45:06.263Z,60.37
2018-08-12T04:47:35.350Z,60.14
2018-08-12T04:50:04.715Z,60.29
2018-08-12T04:52:33.737Z,60.59
2018-08-12T04:55:02.800Z,60.20
2018-08-12T04:57:31.980Z,60.07
2018-08-12T05:00:01.090Z,60.12
2018-08-12T05:02:30.155Z,59.77
2018-08-12T05:04:59.403Z,60.00
2018-08-12T05:07:28.476Z,59.73
2018-08-12T05:09:57.555Z,59.52
2018-08-12T05:12:26.555Z,59.83
2018-08-12T05:14:55.586Z,59.64
2018-08-12T05:17:24.823Z,60.42
2018-08-12T05:20:00.079Z,59.86
2018-08-12T05:22:29.288Z,60.15
2018-08-12T05:24:58.245Z,60.50
2018-08-12T05:27:27.241Z,61.05
2018-08-12T05:29:56.263Z,61.22
2018-08-12T05:32:25.381Z,61.41
2018-08-12T05:34:54.614Z,60.41
2018-08-12T05:37:23.678Z,59.56
2018-08-12T05:39:53.154Z,59.42
2018-08-12T05:42:22.155Z,58.91
2018-08-12T05:44:51.299Z,59.56
2018-08-12T05:47:20.383Z,58.76
2018-08-12T05:49:49.405Z,58.68
2018-08-12T05:52:18.355Z,58.49
2018-08-12T05:54:47.448Z,57.86
2018-08-12T05:57:16.525Z,59.83
2018-08-12T05:59:45.619Z,60.48
2018-08-12T06:02:14.771Z,59.75
2018-08-12T06:04:43.904Z,58.84
2018-08-12T06:07:19.630Z,59.02
2018-08-12T06:09:48.929Z,56.74
2018-08-12T06:12:17.855Z,56.55
2018-08-12T06:14:47.081Z,59.64
2018-08-12T06:17:16.184Z,58.82
2018-08-12T06:19:45.188Z,57.15
2018-08-12T06:22:14.296Z,57.42
2018-08-12T06:24:43.332Z,56.23
2018-08-12T06:27:12.430Z,55.98
2018-08-12T06:29:41.525Z,55.19
2018-08-12T06:32:10.747Z,54.85
2018-08-12T06:34:39.812Z,54.42
2018-08-12T06:37:08.807Z,53.99
2018-08-12T06:39:37.916Z,54.15
2018-08-12T06:42:07.224Z,54.87
2018-08-12T06:44:36.271Z,54.78
2018-08-12T06:47:05.506Z,55.19
2018-08-12T06:49:35.699Z,54.62
2018-08-12T06:52:04.954Z,54.04
2018-08-12T06:54:35.225Z,55.82
2018-08-12T06:57:04.414Z,54.91
2018-08-12T06:59:33.599Z,53.75
2018-08-12T07:02:02.813Z,53.92
2018-08-12T07:04:31.803Z,54.27
2018-08-12T07:07:00.972Z,54.04
2018-08-12T07:09:30.078Z,53.23
2018-08-12T07:11:59.051Z,54.53
2018-08-12T07:14:28.332Z,53.29
2018-08-12T07:16:57.538Z,53.53
2018-08-12T07:19:26.591Z,53.49
2018-08-12T07:21:55.574Z,53.39
2018-08-12T07:24:24.679Z,52.98
2018-08-12T07:26:53.727Z,52.56
2018-08-12T07:29:22.887Z,52.91
2018-08-12T07:31:52.064Z,52.72
2018-08-12T07:34:21.245Z,53.02
2018-08-12T07:36:50.296Z,51.94
2018-08-12T07:39:19.437Z,51.52
2018-08-12T07:41:48.648Z,51.60
2018-08-12T07:44:17.796Z,52.70
2018-08-12T07:46:46.980Z,52.32
2018-08-12T07:49:16.215Z,52.24
2018-08-12T07:51:45.315Z,51.31
2018-08-12T07:54:14.489Z,51.95
2018-08-12T07:56:43.559Z,50.02
2018-08-12T07:59:12.672Z,49.73
2018-08-12T08:01:41.703Z,49.73
2018-08-12T08:04:10.775Z,51.15
2018-08-12T08:06:39.792Z,51.09
2018-08-12T08:09:11.001Z,52.12
2018-08-12T08:11:40.387Z,53.10
2018-08-12T08:14:09.551Z,51.18
2018-08-12T08:16:38.655Z,51.42
2018-08-12T08:19:07.772Z,50.91
2018-08-12T08:21:36.883Z,50.76
2018-08-12T08:24:06.961Z,51.97
2018-08-12T08:26:36.207Z,49.97
2018-08-12T08:29:05.707Z,49.21
2018-08-12T08:31:35.045Z,50.28
2018-08-12T08:34:03.951Z,48.66
2018-08-12T08:36:32.979Z,49.98
2018-08-12T08:39:02.127Z,50.08
2018-08-12T08:41:31.198Z,49.75
2018-08-12T08:44:00.372Z,50.99
2018-08-12T08:46:29.411Z,51.02
2018-08-12T08:48:58.443Z,50.69
2018-08-12T08:51:27.487Z,50.02
2018-08-12T08:53:56.471Z,49.57
2018-08-12T08:56:25.655Z,48.78
2018-08-12T08:58:54.828Z,49.69
2018-08-12T09:01:24.136Z,50.25
2018-08-12T09:03:53.367Z,49.61
2018-08-12T09:06:22.388Z,48.44
2018-08-12T09:08:51.642Z,48.14
2018-08-12T09:11:20.608Z,46.30
2018-08-12T09:13:49.686Z,46.53
2018-08-12T09:16:18.755Z,44.38
2018-08-12T09:18:47.891Z,44.68
2018-08-12T09:21:16.919Z,43.85
2018-08-12T09:23:45.910Z,42.78
2018-08-12T09:26:15.002Z,43.32
2018-08-12T09:28:44.117Z,42.34
2018-08-12T09:31:13.236Z,42.54
2018-08-12T09:33:42.286Z,42.20
2018-08-12T09:36:11.385Z,42.54
2018-08-12T09:38:40.445Z,43.05
2018-08-12T09:41:09.484Z,42.31
2018-08-12T09:43:38.628Z,41.82
2018-08-12T09:46:08.013Z,43.35
2018-08-12T09:48:37.067Z,43.07
2018-08-12T09:51:06.119Z,42.25
2018-08-12T09:53:35.193Z,43.14
2018-08-12T09:56:04.274Z,42.25
2018-08-12T09:58:33.414Z,42.80
2018-08-12T10:01:02.469Z,43.73
2018-08-12T10:03:31.649Z,43.23
2018-08-12T10:06:00.699Z,42.82
2018-08-12T10:08:29.822Z,42.46
2018-08-12T10:10:58.971Z,43.06
2018-08-12T10:13:27.983Z,42.51
2018-08-12T10:15:57.127Z,42.62
2018-08-12T10:18:26.435Z,42.71
2018-08-12T10:20:55.550Z,43.05
2018-08-12T10:23:24.647Z,42.37
2018-08-12T10:25:53.691Z,43.70
2018-08-12T10:28:22.763Z,42.67
2018-08-12T10:30:51.760Z,42.94
2018-08-12T10:33:20.793Z,41.97
2018-08-12T10:35:49.757Z,41.96
2018-08-12T10:38:19.011Z,41.51
2018-08-12T10:40:48.071Z,42.86
2018-08-12T10:43:17.089Z,41.91
2018-08-12T10:45:46.150Z,40.89
2018-08-12T10:48:15.287Z,42.24
2018-08-12T10:50:44.432Z,41.30
2018-08-12T10:53:13.609Z,41.34
2018-08-12T10:55:42.830Z,40.34
2018-08-12T10:58:12.116Z,40.75
2018-08-12T11:00:41.211Z,40.24
2018-08-12T11:03:10.360Z,41.21
2018-08-12T11:05:39.515Z,40.59
2018-08-12T11:08:08.771Z,40.46
2018-08-12T11:10:37.927Z,41.36
2018-08-12T11:13:07.121Z,41.46
2018-08-12T11:15:36.088Z,41.76
2018-08-12T11:18:05.137Z,41.35
2018-08-12T11:20:34.267Z,40.48
2018-08-12T11:23:03.345Z,39.91
2018-08-12T11:25:32.403Z,40.48
2018-08-12T11:28:01.536Z,40.84
2018-08-12T11:30:30.672Z,40.83
2018-08-12T11:32:59.712Z,39.35
2018-08-12T11:35:28.679Z,41.10
2018-08-12T11:37:57.844Z,40.01
2018-08-12T11:40:26.916Z,38.80
2018-08-12T11:42:56.181Z,39.05
2018-08-12T11:45:25.357Z,39.10
2018-08-12T11:47:54.652Z,38.94
2018-08-12T11:50:23.727Z,39.61
2018-08-12T11:52:52.805Z,38.60
2018-08-12T11:55:21.879Z,39.53
2018-08-12T11:57:51.015Z,39.36
2018-08-12T12:00:21.544Z,39.02
2018-08-12T12:02:52.644Z,38.94
2018-08-12T12:05:21.815Z,39.09
2018-08-12T12:07:50.898Z,39.72
2018-08-12T12:10:21.543Z,39.62
2018-08-12T12:12:51.383Z,39.92
2018-08-12T12:15:20.586Z,38.27
2018-08-12T12:17:49.889Z,38.17
2018-08-12T12:20:19.853Z,38.81
2018-08-12T12:22:49.241Z,38.63
2018-08-12T12:25:20.575Z,38.77
2018-08-12T12:27:49.635Z,39.00
2018-08-12T12:30:21.617Z,38.74
2018-08-12T12:32:51.924Z,37.40
2018-08-12T12:35:21.059Z,38.47
2018-08-12T12:37:50.392Z,38.60
2018-08-12T12:40:20.056Z,38.52
2018-08-12T12:42:49.284Z,39.49
2018-08-12T12:45:18.466Z,37.95
2018-08-12T12:47:47.419Z,39.06
2018-08-12T12:50:21.422Z,38.87
2018-08-12T12:52:51.503Z,39.34
2018-08-12T12:55:21.763Z,38.72
2018-08-12T12:57:50.864Z,39.50
2018-08-12T13:00:21.140Z,39.53
2018-08-12T13:02:50.463Z,38.32
2018-08-12T13:05:20.619Z,38.55
2018-08-12T13:07:50.337Z,37.73
2018-08-12T13:10:19.973Z,38.83
2018-08-12T13:12:49.131Z,37.71
2018-08-12T13:15:18.496Z,37.91
2018-08-12T13:17:47.648Z,38.39
2018-08-12T13:20:18.412Z,38.30
2018-08-12T13:22:48.507Z,38.92
2018-08-12T13:25:19.135Z,38.24
2018-08-12T13:27:48.383Z,37.22
2018-08-12T13:30:21.299Z,38.44
2018-08-12T13:32:50.852Z,38.08
2018-08-12T13:35:20.017Z,38.31
2018-08-12T13:37:49.172Z,37.33
2018-08-12T13:40:18.588Z,38.02
2018-08-12T13:42:47.953Z,38.09
2018-08-12T13:45:17.118Z,37.57
2018-08-12T13:47:47.083Z,37.59
2018-08-12T13:50:19.830Z,37.62
2018-08-12T13:52:49.529Z,36.83
2018-08-12T13:55:19.275Z,36.73
2018-08-12T13:57:49.150Z,36.85
2018-08-12T14:00:20.005Z,36.77
2018-08-12T14:02:49.069Z,35.99
2018-08-12T14:05:19.113Z,35.89
2018-08-12T14:07:48.664Z,36.55
2018-08-12T14:10:17.682Z,43.14
2018-08-12T14:12:46.778Z,38.95
2018-08-12T14:15:18.919Z,39.25
2018-08-12T14:17:48.855Z,38.79
2018-08-12T14:20:20.104Z,37.74
2018-08-12T14:22:49.286Z,37.67
2018-08-12T14:25:18.250Z,38.03
2018-08-12T14:27:47.575Z,37.02
2018-08-12T14:30:18.288Z,37.98
2018-08-12T14:32:48.285Z,37.04
2018-08-12T14:35:17.556Z,38.27
2018-08-12T14:37:46.683Z,37.53
2018-08-12T14:40:18.920Z,37.05
2018-08-12T14:42:48.162Z,38.40
2018-08-12T14:45:17.529Z,37.94
2018-08-12T14:47:47.008Z,38.20
2018-08-12T14:50:19.146Z,37.63
2018-08-12T14:52:48.352Z,38.67
2018-08-12T14:55:18.960Z,38.28
2018-08-12T14:57:48.063Z,37.76
2018-08-12T15:00:20.148Z,37.36
2018-08-12T15:02:51.293Z,37.05
2018-08-12T15:05:20.917Z,37.80
2018-08-12T15:07:50.310Z,37.84
2018-08-12T15:10:19.793Z,37.09
2018-08-12T15:12:49.126Z,37.39
2018-08-12T15:15:18.313Z,37.03
2018-08-12T15:17:47.733Z,36.75
2018-08-12T15:20:17.620Z,36.76
2018-08-12T15:22:47.021Z,37.44
2018-08-12T15:25:19.220Z,36.62
2018-08-12T15:27:48.457Z,37.72
2018-08-12T15:30:17.643Z,37.31
2018-08-12T15:32:46.715Z,38.00
2018-08-12T15:37:53.443Z,40.11
2018-08-12T15:40:22.579Z,38.24
2018-08-12T15:42:51.778Z,38.59
2018-08-12T15:45:21.089Z,38.66
2018-08-12T15:47:50.299Z,39.00
2018-08-12T15:50:19.414Z,38.59
2018-08-12T15:52:48.502Z,39.33
2018-08-12T15:55:17.672Z,38.85
2018-08-12T15:57:46.836Z,38.49
2018-08-12T16:00:18.123Z,39.27
2018-08-12T16:02:47.445Z,39.10
2018-08-12T16:05:16.534Z,37.88
2018-08-12T16:07:46.605Z,39.49
2018-08-12T16:10:25.292Z,38.96
2018-08-12T16:12:55.090Z,39.41
2018-08-12T16:15:31.302Z,39.58
2018-08-12T16:18:00.957Z,38.85
2018-08-12T16:20:29.906Z,39.72
2018-08-12T16:22:59.027Z,39.76
2018-08-12T16:25:28.056Z,39.02
2018-08-12T16:27:57.075Z,39.04
2018-08-12T16:30:26.383Z,39.42
2018-08-12T16:32:55.346Z,40.10
2018-08-12T16:35:26.459Z,40.72
2018-08-12T16:37:56.238Z,39.41
2018-08-12T16:40:25.268Z,40.02
2018-08-12T16:42:54.350Z,39.91
2018-08-12T16:45:23.536Z,39.50
2018-08-12T16:47:52.651Z,38.71
2018-08-12T16:50:21.689Z,39.14
2018-08-12T16:52:50.739Z,39.79
2018-08-12T16:55:20.127Z,38.93
2018-08-12T17:03:57.082Z,39.21
2018-08-12T17:06:26.395Z,38.43
2018-08-12T17:08:55.574Z,39.09
2018-08-12T17:11:24.560Z,39.53
2018-08-12T17:13:53.663Z,39.13
2018-08-12T17:16:22.869Z,39.32
2018-08-12T17:18:52.031Z,39.62
2018-08-12T17:21:21.214Z,40.55
2018-08-12T17:23:50.371Z,41.35
2018-08-12T17:26:20.216Z,40.43
2018-08-12T17:28:49.199Z,41.26
2018-08-12T17:31:19.547Z,41.12
2018-08-12T17:33:48.588Z,40.93
2018-08-12T17:36:17.777Z,39.64
2018-08-12T17:38:46.948Z,41.15
2018-08-12T17:41:16.064Z,40.84
2018-08-12T17:43:45.081Z,42.19
2018-08-12T17:46:14.125Z,40.76
2018-08-12T17:48:43.213Z,41.61
2018-08-12T17:51:12.401Z,41.42
2018-08-12T17:53:41.559Z,41.30
2018-08-12T17:56:11.188Z,41.91
2018-08-12T17:58:40.512Z,42.41
2018-08-12T18:01:09.517Z,42.68
2018-08-12T18:03:38.575Z,42.18
2018-08-12T18:06:07.699Z,43.17
2018-08-12T18:08:36.764Z,42.74
2018-08-12T18:11:05.855Z,43.80
2018-08-12T18:13:35.008Z,44.13
2018-08-12T18:16:04.045Z,42.71
2018-08-12T18:18:33.041Z,43.37
2018-08-12T18:21:02.060Z,42.70
2018-08-12T18:23:31.176Z,43.24
2018-08-12T18:26:00.303Z,42.46
2018-08-12T18:28:29.369Z,41.81
2018-08-12T18:30:58.392Z,41.94
2018-08-12T18:33:27.382Z,42.25
2018-08-12T18:35:56.375Z,43.28
2018-08-12T18:38:25.392Z,43.09
2018-08-12T18:40:54.486Z,41.31
2018-08-12T18:43:23.585Z,41.40
2018-08-12T18:45:52.663Z,42.79
2018-08-12T18:48:21.812Z,41.82
2018-08-12T18:50:50.776Z,42.09
2018-08-12T18:53:19.829Z,42.69
2018-08-12T18:55:48.859Z,42.45
2018-08-12T18:58:17.843Z,43.26
2018-08-12T19:00:46.951Z,42.58
2018-08-12T19:03:16.072Z,43.94
2018-08-12T19:05:45.135Z,43.89
2018-08-12T19:08:14.044Z,44.30
2018-08-12T19:10:42.994Z,49.59
2018-08-12T19:13:11.951Z,46.82
2018-08-12T19:15:40.941Z,46.64
2018-08-12T19:18:10.020Z,46.89
2018-08-12T19:20:39.014Z,46.37
2018-08-12T19:23:08.098Z,46.74
2018-08-12T19:25:37.151Z,50.27
2018-08-12T19:28:06.336Z,51.01
2018-08-12T19:30:35.303Z,49.88
2018-08-12T19:33:04.402Z,49.35
2018-08-12T19:35:33.431Z,48.00
2018-08-12T19:38:02.614Z,48.46
2018-08-12T19:40:31.637Z,47.54
2018-08-12T19:43:00.747Z,46.67
2018-08-12T19:45:30.068Z,46.53
2018-08-12T19:47:59.056Z,47.05
2018-08-12T19:50:28.156Z,47.08
2018-08-12T19:52:57.310Z,46.57
2018-08-12T19:55:26.319Z,47.41
2018-08-12T19:57:55.360Z,46.19
2018-08-12T20:00:24.322Z,46.40
2018-08-12T20:02:53.383Z,46.11
2018-08-12T20:05:22.361Z,46.50
2018-08-12T20:07:51.391Z,46.30
2018-08-12T20:10:20.358Z,47.84
2018-08-12T20:12:49.546Z,46.88
2018-08-12T20:15:18.650Z,48.01
2018-08-12T20:17:47.554Z,48.49
2018-08-12T20:20:16.600Z,48.44
2018-08-12T20:22:48.429Z,47.31
2018-08-12T20:25:17.467Z,47.83
2018-08-12T20:27:46.500Z,48.30
2018-08-12T20:30:15.495Z,47.89
2018-08-12T20:32:44.474Z,48.64
2018-08-12T20:35:13.457Z,48.49
2018-08-12T20:37:42.442Z,48.49
2018-08-12T20:40:11.545Z,48.87
2018-08-12T20:42:40.586Z,47.96
2018-08-12T20:45:09.602Z,48.93
2018-08-12T20:47:38.642Z,48.93
2018-08-12T20:50:08.252Z,48.13
2018-08-12T20:52:37.752Z,49.39
2018-08-12T20:55:06.856Z,48.03
2018-08-12T20:57:36.235Z,49.28
2018-08-12T21:00:06.792Z,48.42
2018-08-12T21:02:36.009Z,48.71
2018-08-12T21:05:05.509Z,48.34
2018-08-12T21:07:34.620Z,48.54
2018-08-12T21:10:04.440Z,48.88
2018-08-12T21:12:33.552Z,48.86
2018-08-12T21:15:02.590Z,49.08
2018-08-12T21:17:31.526Z,49.69
2018-08-12T21:20:00.457Z,49.76
2018-08-12T21:22:29.569Z,49.44
2018-08-12T21:24:58.712Z,48.99
2018-08-12T21:27:27.682Z,49.21
2018-08-12T21:29:56.638Z,50.44
2018-08-12T21:32:25.635Z,50.22
2018-08-12T21:34:54.603Z,50.03
2018-08-12T21:37:23.594Z,50.03
2018-08-12T21:39:52.573Z,50.47
2018-08-12T21:42:21.734Z,50.04
2018-08-12T21:44:50.935Z,49.99
2018-08-12T21:47:20.062Z,50.00
2018-08-12T21:49:49.060Z,50.50
2018-08-12T21:52:18.000Z,50.24
2018-08-12T21:54:47.056Z,50.94
2018-08-12T21:57:16.057Z,50.20
2018-08-12T21:59:45.095Z,50.79
2018-08-12T22:02:14.099Z,51.45
2018-08-12T22:04:43.157Z,52.02
2018-08-12T22:07:12.258Z,51.10
2018-08-12T22:09:41.172Z,51.79
2018-08-12T22:12:10.223Z,51.55
2018-08-12T22:14:39.216Z,52.02
2018-08-12T22:17:08.192Z,52.57
2018-08-12T22:19:37.194Z,51.91
2018-08-12T22:22:06.499Z,52.46
2018-08-12T22:24:35.519Z,53.32
2018-08-12T22:27:04.623Z,52.95
2018-08-12T22:29:33.609Z,53.00
2018-08-12T22:32:02.637Z,52.84
2018-08-12T22:34:31.635Z,52.62
2018-08-12T22:37:00.656Z,52.61
2018-08-12T22:39:29.723Z,53.43
2018-08-12T22:41:58.866Z,52.58
2018-08-12T22:44:27.899Z,53.85
2018-08-12T22:46:57.044Z,52.63
2018-08-12T22:49:26.041Z,52.26
2018-08-12T22:51:55.200Z,52.49
2018-08-12T22:54:24.236Z,52.94
2018-08-12T22:56:53.525Z,52.83
2018-08-12T22:59:22.616Z,52.38
2018-08-12T23:01:51.734Z,53.44
2018-08-12T23:04:20.833Z,52.88
2018-08-12T23:06:49.961Z,52.97
2018-08-12T23:09:18.975Z,53.04
2018-08-12T23:11:48.043Z,53.29
2018-08-12T23:14:17.031Z,53.97
2018-08-12T23:16:59.524Z,53.18
2018-08-12T23:19:28.953Z,53.00
2018-08-12T23:21:58.254Z,53.41
2018-08-12T23:24:27.283Z,52.75
2018-08-12T23:26:56.355Z,52.76
2018-08-12T23:29:25.408Z,52.16
2018-08-12T23:31:54.395Z,52.10
2018-08-12T23:34:23.396Z,51.90
2018-08-12T23:36:52.553Z,51.82
2018-08-12T23:39:21.701Z,52.78
2018-08-12T23:41:50.705Z,52.35
2018-08-12T23:44:19.715Z,51.76
2018-08-12T23:46:48.810Z,52.40
2018-08-12T23:49:17.905Z,52.25
2018-08-12T23:51:46.896Z,53.03
2018-08-12T23:54:16.010Z,52.36
2018-08-12T23:56:45.087Z,52.81
2018-08-12T23:59:14.133Z,53.51
